Time;durP1;ratioP1;P1;durP2;ratioP2;P2;SDS_P1;SDS_P2;PMS_P1;PMS_P2;Temp;Humidity;BMP_temperature;BMP_pressure;BME280_temperature;BME280_humidity;BME280_pressure;Samples;Min_cycle;Max_cycle;Signal;HPM_P1;HPM_P2
2023/11/12 00:02:15;;;;;;;0.40;0.40;;;;;;;-145.01;100.00;64805.59;4901903;29;20072;-58
2023/11/12 00:04:44;;;;;;;0.40;0.40;;;;;;;-145.01;100.00;64805.59;4912357;29;20043;-58
2023/11/12 00:07:11;;;;;;;0.50;0.50;;;;;;;-145.01;100.00;64805.59;4908772;29;20064;-58
2023/11/12 00:09:40;;;;;;;0.50;0.50;;;;;;;-145.01;100.00;64805.59;4903192;29;20044;-59
2023/11/12 00:12:08;;;;;;;0.43;0.43;;;;;;;-145.01;100.00;64805.59;4903265;29;20132;-59
2023/11/12 00:14:35;;;;;;;0.30;0.30;;;;;;;-145.01;100.00;64805.59;4905425;29;20041;-59
2023/11/12 00:17:02;;;;;;;0.47;0.47;;;;;;;-145.01;100.00;64805.59;4908322;29;20051;-58
2023/11/12 00:19:32;;;;;;;0.40;0.40;;;;;;;-145.01;100.00;64805.59;4903535;29;20123;-59
2023/11/12 00:22:01;;;;;;;0.40;0.40;;;;;;;-145.01;100.00;64805.59;4904917;29;20049;-59
2023/11/12 00:24:29;;;;;;;0.40;0.40;;;;;;;-145.01;100.00;64805.59;4903711;29;20371;-60
2023/11/12 00:26:56;;;;;;;0.40;0.40;;;;;;;-145.01;100.00;64805.59;4903579;29;20092;-59
2023/11/12 00:29:23;;;;;;;0.40;0.40;;;;;;;-145.01;100.00;64805.59;4903713;29;20071;-59
2023/11/12 00:31:50;;;;;;;0.43;0.43;;;;;;;-145.01;100.00;64805.59;4907839;29;20519;-59
2023/11/12 00:34:17;;;;;;;0.45;0.45;;;;;;;-145.01;100.00;64805.59;4909149;29;20044;-59
2023/11/12 00:36:45;;;;;;;0.50;0.50;;;;;;;-145.01;100.00;64805.59;4907725;29;20471;-59
2023/11/12 00:39:13;;;;;;;0.43;0.43;;;;;;;-145.01;100.00;64805.59;4904994;29;20048;-59
2023/11/12 00:41:41;;;;;;;0.40;0.40;;;;;;;-145.01;100.00;64805.59;4916220;29;20067;-59
2023/11/12 00:44:11;;;;;;;0.50;0.50;;;;;;;-145.01;100.00;64805.59;4913352;29;20073;-59
2023/11/12 00:46:40;;;;;;;0.40;0.40;;;;;;;-145.01;100.00;64805.59;4914821;29;20052;-59
2023/11/12 00:49:07;;;;;;;0.50;0.50;;;;;;;-145.01;100.00;64805.59;4902887;29;20083;-59
2023/11/12 00:51:34;;;;;;;0.40;0.40;;;;;;;-145.01;100.00;64805.59;4908305;29;20077;-59
2023/11/12 00:54:04;;;;;;;0.45;0.45;;;;;;;-145.01;100.00;64805.59;4903492;29;20048;-59
2023/11/12 00:56:33;;;;;;;0.40;0.40;;;;;;;-145.01;100.00;64805.59;4903248;29;20048;-59
2023/11/12 00:59:00;;;;;;;0.60;0.60;;;;;;;-145.01;100.00;64805.59;4906923;29;20048;-59
2023/11/12 01:01:28;;;;;;;0.50;0.50;;;;;;;-145.01;100.00;64805.59;4897911;29;20072;-59
2023/11/12 01:03:55;;;;;;;0.57;0.57;;;;;;;-145.01;100.00;64805.59;4895951;29;20440;-59
2023/11/12 01:06:23;;;;;;;0.60;0.60;;;;;;;-145.01;100.00;64805.59;4906715;29;20507;-59
2023/11/12 01:08:50;;;;;;;0.50;0.50;;;;;;;-145.01;100.00;64805.59;4900497;29;20053;-58
2023/11/12 01:11:17;;;;;;;0.60;0.60;;;;;;;-145.01;100.00;64805.59;4922790;29;20096;-59
2023/11/12 01:13:46;;;;;;;0.50;0.50;;;;;;;-145.01;100.00;64805.59;4903630;29;20055;-59
2023/11/12 01:16:13;;;;;;;0.43;0.43;;;;;;;-145.01;100.00;64805.59;4903235;29;20527;-58
2023/11/12 01:18:41;;;;;;;0.50;0.50;;;;;;;-145.01;100.00;64805.59;4898793;29;20376;-58
2023/11/12 01:21:09;;;;;;;0.50;0.50;;;;;;;-145.01;100.00;64805.59;4902047;29;20070;-59
2023/11/12 01:23:37;;;;;;;0.40;0.40;;;;;;;-145.01;100.00;64805.59;4896285;29;20072;-59
2023/11/12 01:26:05;;;;;;;0.40;0.40;;;;;;;-145.01;100.00;64805.59;4908949;29;20053;-59
2023/11/12 01:28:34;;;;;;;0.50;0.50;;;;;;;-145.01;100.00;64805.59;4907717;29;20056;-59
2023/11/12 01:31:02;;;;;;;0.50;0.50;;;;;;;-145.01;100.00;64805.59;4905581;29;20051;-59
2023/11/12 01:33:29;;;;;;;0.40;0.40;;;;;;;-145.01;100.00;64805.59;4898926;29;20039;-59
2023/11/12 01:35:56;;;;;;;0.45;0.45;;;;;;;-145.01;100.00;64805.59;4901719;29;20092;-59
2023/11/12 01:38:23;;;;;;;0.47;0.47;;;;;;;-145.01;100.00;64805.59;4906801;29;20156;-59
2023/11/12 01:40:51;;;;;;;0.40;0.40;;;;;;;-145.01;100.00;64805.59;4901696;29;20049;-58
2023/11/12 01:43:19;;;;;;;0.50;0.50;;;;;;;-145.01;100.00;64805.59;4905865;29;20041;-59
2023/11/12 01:45:46;;;;;;;0.43;0.43;;;;;;;-145.01;100.00;64805.59;4901449;29;20104;-59
2023/11/12 01:48:15;;;;;;;0.50;0.50;;;;;;;-145.01;100.00;64805.59;4911107;29;20056;-59
2023/11/12 01:50:42;;;;;;;0.57;0.57;;;;;;;-145.01;100.00;64805.59;4911508;29;20059;-58
2023/11/12 01:53:10;;;;;;;0.40;0.40;;;;;;;-145.01;100.00;64805.59;4910817;29;20348;-58
2023/11/12 01:55:37;;;;;;;0.50;0.50;;;;;;;-145.01;100.00;64805.59;4895373;29;20052;-59
2023/11/12 01:58:05;;;;;;;0.40;0.40;;;;;;;-145.01;100.00;64805.59;4902688;29;20048;-59
2023/11/12 02:00:33;;;;;;;0.40;0.40;;;;;;;-145.01;100.00;64805.59;4903716;29;20123;-59
2023/11/12 02:03:01;;;;;;;0.40;0.40;;;;;;;-145.01;100.00;64805.59;4909557;29;20064;-59
2023/11/12 02:05:29;;;;;;;0.45;0.45;;;;;;;-145.01;100.00;64805.59;4902735;29;20283;-59
2023/11/12 02:07:56;;;;;;;0.43;0.43;;;;;;;-145.01;100.00;64805.59;4909686;29;20099;-59
2023/11/12 02:10:24;;;;;;;0.38;0.38;;;;;;;-145.01;100.00;64805.59;4910091;29;20552;-59
2023/11/12 02:12:52;;;;;;;0.43;0.43;;;;;;;-145.01;100.00;64805.59;4901439;29;20420;-59
2023/11/12 02:15:19;;;;;;;0.40;0.40;;;;;;;-145.01;100.00;64805.59;4912034;29;20040;-59
2023/11/12 02:17:48;;;;;;;0.40;0.40;;;;;;;-145.01;100.00;64805.59;4911858;29;20052;-59
2023/11/12 02:20:15;;;;;;;0.43;0.43;;;;;;;-145.01;100.00;64805.59;4912693;29;20102;-60
2023/11/12 02:22:44;;;;;;;0.40;0.40;;;;;;;-145.01;100.00;64805.59;4903784;29;20055;-59
2023/11/12 02:25:13;;;;;;;0.40;0.40;;;;;;;-145.01;100.00;64805.59;4900064;29;20064;-58
2023/11/12 02:27:40;;;;;;;0.50;0.50;;;;;;;-145.01;100.00;64805.59;4903622;29;20076;-59
2023/11/12 02:30:09;;;;;;;0.40;0.40;;;;;;;-145.01;100.00;64805.59;4900713;29;20558;-59
2023/11/12 02:32:37;;;;;;;0.40;0.40;;;;;;;-145.01;100.00;64805.59;4914875;29;20087;-59
2023/11/12 02:35:04;;;;;;;0.45;0.45;;;;;;;-145.01;100.00;64805.59;4907850;29;20590;-58
2023/11/12 02:37:32;;;;;;;0.30;0.30;;;;;;;-145.01;100.00;64805.59;4901819;29;20059;-59
2023/11/12 02:39:59;;;;;;;0.40;0.40;;;;;;;-145.01;100.00;64805.59;4913140;29;20123;-59
2023/11/12 02:42:29;;;;;;;0.40;0.40;;;;;;;-145.01;100.00;64805.59;4895633;29;20571;-59
2023/11/12 02:44:56;;;;;;;0.50;0.50;;;;;;;-145.01;100.00;64805.59;4899694;29;20052;-59
2023/11/12 02:47:25;;;;;;;0.40;0.40;;;;;;;-145.01;100.00;64805.59;4907661;29;20067;-59
2023/11/12 02:50:05;;;;;;;0.50;0.50;;;;;;;-145.01;100.00;64805.59;4910305;29;20056;-59
2023/11/12 02:52:32;;;;;;;0.43;0.43;;;;;;;-145.01;100.00;64805.59;4907448;29;20447;-59
2023/11/12 02:54:59;;;;;;;0.40;0.40;;;;;;;-145.01;100.00;64805.59;4904290;29;20333;-59
2023/11/12 02:57:28;;;;;;;0.47;0.47;;;;;;;-145.01;100.00;64805.59;4897831;29;20409;-59
2023/11/12 02:59:55;;;;;;;0.32;0.32;;;;;;;-145.01;100.00;64805.59;4904683;29;20052;-58
2023/11/12 03:02:23;;;;;;;0.32;0.32;;;;;;;-145.01;100.00;64805.59;4902951;29;20123;-59
2023/11/12 03:04:50;;;;;;;0.40;0.40;;;;;;;-145.01;100.00;64805.59;4913275;29;20052;-59
2023/11/12 03:07:19;;;;;;;0.40;0.40;;;;;;;-145.01;100.00;64805.59;4902316;29;20076;-58
2023/11/12 03:09:46;;;;;;;0.40;0.40;;;;;;;-145.01;100.00;64805.59;4906143;29;20060;-59
2023/11/12 03:12:13;;;;;;;0.40;0.40;;;;;;;-145.01;100.00;64805.59;4903560;29;20160;-59
2023/11/12 03:14:44;;;;;;;0.40;0.40;;;;;;;-145.01;100.00;64805.59;4897370;29;20440;-59
2023/11/12 03:17:11;;;;;;;0.40;0.40;;;;;;;-145.01;100.00;64805.59;4908546;29;20056;-59
2023/11/12 03:19:38;;;;;;;0.50;0.50;;;;;;;-145.01;100.00;64805.59;4909481;29;20048;-59
2023/11/12 03:22:06;;;;;;;0.60;0.60;;;;;;;-145.01;100.00;64805.59;4904012;29;20127;-58
2023/11/12 03:24:35;;;;;;;0.43;0.43;;;;;;;-145.01;100.00;64805.59;4904381;29;20091;-58
2023/11/12 03:27:03;;;;;;;0.50;0.50;;;;;;;-145.01;100.00;64805.59;4901343;29;20051;-58
2023/11/12 03:29:31;;;;;;;0.60;0.60;;;;;;;-145.01;100.00;64805.59;4907988;29;20059;-59
2023/11/12 03:31:59;;;;;;;0.60;0.60;;;;;;;-145.01;100.00;64805.59;4912003;29;20831;-59
2023/11/12 03:34:27;;;;;;;0.50;0.50;;;;;;;-145.01;100.00;64805.59;4898287;29;20064;-59
2023/11/12 03:36:54;;;;;;;0.50;0.50;;;;;;;-145.01;100.00;64805.59;4901635;29;20103;-58
2023/11/12 03:39:22;;;;;;;0.60;0.60;;;;;;;-145.01;100.00;64805.59;4904979;29;20430;-59
2023/11/12 03:41:49;;;;;;;0.40;0.40;;;;;;;-145.01;100.00;64805.59;4910318;29;20603;-59
2023/11/12 03:44:16;;;;;;;0.50;0.50;;;;;;;-145.01;100.00;64805.59;4915750;29;20041;-59
2023/11/12 03:46:43;;;;;;;0.57;0.57;;;;;;;-145.01;100.00;64805.59;4902714;29;20048;-58
2023/11/12 03:49:12;;;;;;;0.60;0.60;;;;;;;-145.01;100.00;64805.59;4902693;29;20056;-59
2023/11/12 03:51:40;;;;;;;0.50;0.50;;;;;;;-145.01;100.00;64805.59;4907311;29;20043;-58
2023/11/12 03:54:07;;;;;;;0.52;0.52;;;;;;;-145.01;100.00;64805.59;4902832;29;20075;-58
2023/11/12 03:56:34;;;;;;;0.50;0.50;;;;;;;-145.01;100.00;64805.59;4911072;29;20047;-58
2023/11/12 03:59:01;;;;;;;0.60;0.60;;;;;;;-145.01;100.00;64805.59;4910395;29;20125;-58
2023/11/12 04:01:28;;;;;;;0.55;0.55;;;;;;;-145.01;100.00;64805.59;4902860;29;20044;-59
2023/11/12 04:03:55;;;;;;;0.50;0.50;;;;;;;-145.01;100.00;64805.59;4907959;29;20045;-59
2023/11/12 04:06:24;;;;;;;0.50;0.50;;;;;;;-145.01;100.00;64805.59;4894541;29;20032;-60
2023/11/12 04:08:51;;;;;;;0.55;0.55;;;;;;;-145.01;100.00;64805.59;4899711;29;20143;-59
2023/11/12 04:11:19;;;;;;;0.50;0.50;;;;;;;-145.01;100.00;64805.59;4907841;29;20065;-59
2023/11/12 04:13:46;;;;;;;0.50;0.50;;;;;;;-145.01;100.00;64805.59;4912629;29;20055;-58
2023/11/12 04:16:13;;;;;;;0.47;0.47;;;;;;;-145.01;100.00;64805.59;4907770;29;20051;-59
2023/11/12 04:18:40;;;;;;;0.40;0.40;;;;;;;-145.01;100.00;64805.59;4915801;29;20067;-58
2023/11/12 04:21:08;;;;;;;0.50;0.50;;;;;;;-145.01;100.00;64805.59;4909229;29;20543;-58
2023/11/12 04:23:36;;;;;;;0.45;0.45;;;;;;;-145.01;100.00;64805.59;4907160;29;20611;-58
2023/11/12 04:26:04;;;;;;;0.50;0.50;;;;;;;-145.01;100.00;64805.59;4902095;29;20107;-59
2023/11/12 04:28:31;;;;;;;0.45;0.45;;;;;;;-145.01;100.00;64805.59;4906780;29;21110;-58
2023/11/12 04:30:58;;;;;;;0.40;0.40;;;;;;;-145.01;100.00;64805.59;4915057;29;20549;-58
2023/11/12 04:33:25;;;;;;;0.50;0.50;;;;;;;-145.01;100.00;64805.59;4907968;29;20054;-58
2023/11/12 04:35:52;;;;;;;0.47;0.47;;;;;;;-145.01;100.00;64805.59;4913151;29;20143;-59
2023/11/12 04:38:20;;;;;;;0.50;0.50;;;;;;;-145.01;100.00;64805.59;4906876;29;20155;-59
2023/11/12 04:40:48;;;;;;;0.57;0.57;;;;;;;-145.01;100.00;64805.59;4902906;29;20103;-59
2023/11/12 04:43:16;;;;;;;0.50;0.50;;;;;;;-145.01;100.00;64805.59;4898313;29;20037;-59
2023/11/12 04:45:43;;;;;;;0.50;0.50;;;;;;;-145.01;100.00;64805.59;4906721;29;20079;-59
2023/11/12 04:48:11;;;;;;;0.40;0.40;;;;;;;-145.01;100.00;64805.59;4911885;29;20087;-59
2023/11/12 04:50:38;;;;;;;0.50;0.50;;;;;;;-145.01;100.00;64805.59;4909892;29;20054;-59
2023/11/12 04:53:06;;;;;;;0.50;0.50;;;;;;;-145.01;100.00;64805.59;4907421;29;20571;-59
2023/11/12 04:55:33;;;;;;;0.40;0.40;;;;;;;-145.01;100.00;64805.59;4897885;29;20136;-59
2023/11/12 04:58:04;;;;;;;0.50;0.50;;;;;;;-145.01;100.00;64805.59;4907875;29;20040;-59
2023/11/12 05:00:31;;;;;;;;;;;;;;;-145.01;100.00;64805.59;4906425;29;20048;-59
2023/11/12 05:02:58;;;;;;;0.50;0.50;;;;;;;-145.01;100.00;64805.59;4897105;29;19928;-59
2023/11/12 05:05:25;;;;;;;0.50;0.50;;;;;;;-145.01;100.00;64805.59;4901611;29;20495;-58
2023/11/12 05:07:52;;;;;;;0.50;0.50;;;;;;;-145.01;100.00;64805.59;4902337;29;20116;-59
2023/11/12 05:10:20;;;;;;;0.52;0.52;;;;;;;-145.01;100.00;64805.59;4902072;29;20050;-59
2023/11/12 05:12:47;;;;;;;0.50;0.50;;;;;;;-145.01;100.00;64805.59;4905667;29;20076;-59
2023/11/12 05:15:15;;;;;;;0.40;0.40;;;;;;;-145.01;100.00;64805.59;4909274;29;20298;-58
2023/11/12 05:17:42;;;;;;;0.40;0.40;;;;;;;-145.01;100.00;64805.59;4909405;29;20044;-58
2023/11/12 05:20:10;;;;;;;0.50;0.50;;;;;;;-145.01;100.00;64805.59;4901446;29;20143;-58
2023/11/12 05:22:38;;;;;;;0.50;0.50;;;;;;;-145.01;100.00;64805.59;4906984;29;20514;-58
2023/11/12 05:25:06;;;;;;;0.55;0.55;;;;;;;-145.01;100.00;64805.59;4895400;29;20139;-58
2023/11/12 05:27:35;;;;;;;0.40;0.40;;;;;;;-145.01;100.00;64805.59;4912697;29;20095;-58
2023/11/12 05:30:02;;;;;;;0.40;0.40;;;;;;;-145.01;100.00;64805.59;4907049;29;20113;-59
2023/11/12 05:32:31;;;;;;;0.45;0.45;;;;;;;-145.01;100.00;64805.59;4909179;29;20128;-59
2023/11/12 05:34:58;;;;;;;0.55;0.55;;;;;;;-145.01;100.00;64805.59;4907862;29;20135;-57
2023/11/12 05:37:25;;;;;;;0.50;0.50;;;;;;;-145.01;100.00;64805.59;4905445;29;20075;-58
2023/11/12 05:39:52;;;;;;;0.60;0.60;;;;;;;-145.01;100.00;64805.59;4899190;29;20127;-58
2023/11/12 05:42:19;;;;;;;0.57;0.57;;;;;;;-145.01;100.00;64805.59;4907423;29;20058;-58
2023/11/12 05:44:46;;;;;;;0.60;0.60;;;;;;;-145.01;100.00;64805.59;4905655;29;20052;-58
2023/11/12 05:47:14;;;;;;;0.60;0.60;;;;;;;-145.01;100.00;64805.59;4905658;29;20079;-58
2023/11/12 05:49:42;;;;;;;0.50;0.50;;;;;;;-145.01;100.00;64805.59;4898784;29;20155;-58
2023/11/12 05:52:09;;;;;;;0.60;0.60;;;;;;;-145.01;100.00;64805.59;4900750;29;20064;-58
2023/11/12 05:54:36;;;;;;;0.57;0.57;;;;;;;-145.01;100.00;64805.59;4905301;29;20044;-57
2023/11/12 05:57:04;;;;;;;0.70;0.70;;;;;;;-145.01;100.00;64805.59;4903045;29;20044;-58
2023/11/12 05:59:31;;;;;;;0.50;0.50;;;;;;;-145.01;100.00;64805.59;4905146;29;20460;-58
2023/11/12 06:01:58;;;;;;;0.60;0.60;;;;;;;-145.01;100.00;64805.59;4911375;29;20503;-57
2023/11/12 06:04:25;;;;;;;0.60;0.60;;;;;;;-145.01;100.00;64805.59;4906278;29;20232;-58
2023/11/12 06:06:53;;;;;;;0.50;0.50;;;;;;;-145.01;100.00;64805.59;4901353;29;20048;-57
2023/11/12 06:09:20;;;;;;;0.50;0.50;;;;;;;-145.01;100.00;64805.59;4899666;29;20100;-57
2023/11/12 06:11:47;;;;;;;0.50;0.50;;;;;;;-145.01;100.00;64805.59;4902032;29;20095;-58
2023/11/12 06:14:15;;;;;;;0.55;0.55;;;;;;;-145.01;100.00;64805.59;4903237;29;20043;-58
2023/11/12 06:16:42;;;;;;;0.50;0.50;;;;;;;-145.01;100.00;64805.59;4906017;29;20075;-58
2023/11/12 06:19:09;;;;;;;0.50;0.50;;;;;;;-145.01;100.00;64805.59;4903091;29;20072;-57
2023/11/12 06:21:36;;;;;;;0.50;0.50;;;;;;;-145.01;100.00;64805.59;4901273;29;20354;-57
2023/11/12 06:24:06;;;;;;;0.50;0.50;;;;;;;-145.01;100.00;64805.59;4907404;29;20786;-58
2023/11/12 06:26:34;;;;;;;0.40;0.40;;;;;;;-145.01;100.00;64805.59;4904492;29;20187;-58
2023/11/12 06:29:01;;;;;;;0.60;0.60;;;;;;;-145.01;100.00;64805.59;4909843;29;20044;-57
2023/11/12 06:31:28;;;;;;;0.50;0.50;;;;;;;-145.01;100.00;64805.59;4902175;29;20307;-58
2023/11/12 06:33:55;;;;;;;0.50;0.50;;;;;;;-145.01;100.00;64805.59;4901783;29;20120;-58
2023/11/12 06:36:22;;;;;;;0.50;0.50;;;;;;;-145.01;100.00;64805.59;4899298;29;20067;-57
2023/11/12 06:38:49;;;;;;;0.43;0.43;;;;;;;-145.01;100.00;64805.59;4902684;29;20051;-57
2023/11/12 06:41:17;;;;;;;0.60;0.60;;;;;;;-145.01;100.00;64805.59;4903758;29;20044;-57
2023/11/12 06:43:44;;;;;;;0.50;0.50;;;;;;;-145.01;100.00;64805.59;4910771;29;20047;-57
2023/11/12 06:46:11;;;;;;;0.60;0.60;;;;;;;-145.01;100.00;64805.59;4905383;29;20131;-58
2023/11/12 06:48:39;;;;;;;0.50;0.50;;;;;;;-145.01;100.00;64805.59;4898123;29;20135;-58
2023/11/12 06:51:07;;;;;;;0.60;0.60;;;;;;;-145.01;100.00;64805.59;4901217;29;20052;-58
2023/11/12 06:53:34;;;;;;;0.40;0.40;;;;;;;-145.01;100.00;64805.59;4902227;29;20051;-57
2023/11/12 06:56:01;;;;;;;0.50;0.50;;;;;;;-145.01;100.00;64805.59;4906483;29;20047;-58
2023/11/12 06:58:29;;;;;;;0.50;0.50;;;;;;;-145.01;100.00;64805.59;4900514;29;20130;-57
2023/11/12 07:00:56;;;;;;;0.60;0.60;;;;;;;-145.01;100.00;64805.59;4906341;29;20065;-57
2023/11/12 07:03:23;;;;;;;0.40;0.40;;;;;;;-145.01;100.00;64805.59;4903597;29;20068;-58
2023/11/12 07:05:50;;;;;;;0.60;0.60;;;;;;;-145.01;100.00;64805.59;4896430;29;20143;-58
2023/11/12 07:08:19;;;;;;;0.55;0.55;;;;;;;-145.01;100.00;64805.59;4904282;29;20044;-58
2023/11/12 07:10:46;;;;;;;0.60;0.60;;;;;;;-145.01;100.00;64805.59;4908987;29;20193;-58
2023/11/12 07:13:14;;;;;;;0.63;0.63;;;;;;;-145.01;100.00;64805.59;4911162;29;20264;-58
2023/11/12 07:15:43;;;;;;;0.60;0.60;;;;;;;-145.01;100.00;64805.59;4899356;29;20412;-58
2023/11/12 07:18:10;;;;;;;0.40;0.40;;;;;;;-145.01;100.00;64805.59;4907168;29;20052;-58
2023/11/12 07:20:37;;;;;;;0.60;0.60;;;;;;;-145.01;100.00;64805.59;4903721;29;20052;-58
2023/11/12 07:23:04;;;;;;;0.60;0.60;;;;;;;-145.01;100.00;64805.59;4905408;29;20143;-58
2023/11/12 07:25:33;;;;;;;0.60;0.60;;;;;;;-145.01;100.00;64805.59;4907926;29;20411;-57
2023/11/12 07:28:00;;;;;;;0.50;0.50;;;;;;;-145.01;100.00;64805.59;4904156;29;20049;-58
2023/11/12 07:30:27;;;;;;;0.50;0.50;;;;;;;-145.01;100.00;64805.59;4908317;29;20381;-57
2023/11/12 07:32:55;;;;;;;0.50;0.50;;;;;;;-145.01;100.00;64805.59;4906161;29;20151;-58
2023/11/12 07:35:23;;;;;;;0.57;0.57;;;;;;;-145.01;100.00;64805.59;4894637;29;20044;-58
2023/11/12 07:37:50;;;;;;;0.50;0.50;;;;;;;-145.01;100.00;64805.59;4904498;29;20055;-58
2023/11/12 07:40:18;;;;;;;0.50;0.50;;;;;;;-145.01;100.00;64805.59;4911356;29;20051;-58
2023/11/12 07:42:45;;;;;;;0.50;0.50;;;;;;;-145.01;100.00;64805.59;4899774;29;20044;-58
2023/11/12 07:45:13;;;;;;;0.45;0.45;;;;;;;-145.01;100.00;64805.59;4896577;29;20045;-58
2023/11/12 07:47:40;;;;;;;0.50;0.50;;;;;;;-145.01;100.00;64805.59;4898278;29;20051;-58
2023/11/12 07:50:10;;;;;;;0.50;0.50;;;;;;;-145.01;100.00;64805.59;4904925;29;20047;-58
2023/11/12 07:52:37;;;;;;;0.50;0.50;;;;;;;-145.01;100.00;64805.59;4913097;29;20155;-57
2023/11/12 07:55:05;;;;;;;0.40;0.40;;;;;;;-145.01;100.00;64805.59;4901348;29;20036;-58
2023/11/12 07:57:33;;;;;;;0.60;0.60;;;;;;;-145.01;100.00;64805.59;4898480;29;20095;-58
2023/11/12 08:00:00;;;;;;;0.50;0.50;;;;;;;-145.01;100.00;64805.59;4909229;29;20083;-58
2023/11/12 08:02:28;;;;;;;0.50;0.50;;;;;;;-145.01;100.00;64805.59;4902757;29;20508;-58
2023/11/12 08:04:55;;;;;;;0.50;0.50;;;;;;;-145.01;100.00;64805.59;4902302;29;20095;-58
2023/11/12 08:07:24;;;;;;;0.40;0.40;;;;;;;-145.01;100.00;64805.59;4903339;29;20037;-58
2023/11/12 08:09:51;;;;;;;0.50;0.50;;;;;;;-145.01;100.00;64805.59;4901964;29;20144;-57
2023/11/12 08:12:18;;;;;;;0.40;0.40;;;;;;;-145.01;100.00;64805.59;4906632;29;20052;-58
2023/11/12 08:14:45;;;;;;;0.40;0.40;;;;;;;-145.01;100.00;64805.59;4911957;29;20100;-57
2023/11/12 08:17:13;;;;;;;0.40;0.40;;;;;;;-145.01;100.00;64805.59;4896489;29;20146;-57
2023/11/12 08:19:40;;;;;;;0.55;0.55;;;;;;;-145.01;100.00;64805.59;4908921;29;20062;-58
2023/11/12 08:22:08;;;;;;;0.50;0.50;;;;;;;-145.01;100.00;64805.59;4901768;29;20052;-58
2023/11/12 08:24:36;;;;;;;0.35;0.35;;;;;;;-145.01;100.00;64805.59;4896332;29;20444;-58
2023/11/12 08:27:04;;;;;;;0.40;0.40;;;;;;;-145.01;100.00;64805.59;4913722;29;20096;-58
2023/11/12 08:29:31;;;;;;;0.47;0.47;;;;;;;-145.01;100.00;64805.59;4906556;29;20804;-58
2023/11/12 08:31:59;;;;;;;0.50;0.50;;;;;;;-145.01;100.00;64805.59;4900353;29;20086;-58
2023/11/12 08:34:26;;;;;;;0.40;0.40;;;;;;;-145.01;100.00;64805.59;4910816;29;20419;-58
2023/11/12 08:36:53;;;;;;;0.40;0.40;;;;;;;-145.01;100.00;64805.59;4898472;29;20147;-58
2023/11/12 08:39:20;;;;;;;0.40;0.40;;;;;;;-145.01;100.00;64805.59;4906431;29;20043;-58
2023/11/12 08:41:49;;;;;;;0.40;0.40;;;;;;;-145.01;100.00;64805.59;4912650;29;20155;-58
2023/11/12 08:44:16;;;;;;;0.38;0.38;;;;;;;-145.01;100.00;64805.59;4898096;29;20109;-58
2023/11/12 08:46:43;;;;;;;0.50;0.50;;;;;;;-145.01;100.00;64805.59;4910536;29;20123;-58
2023/11/12 08:49:10;;;;;;;0.40;0.40;;;;;;;-145.01;100.00;64805.59;4900996;29;20048;-58
2023/11/12 08:51:37;;;;;;;0.40;0.40;;;;;;;-145.01;100.00;64805.59;4901439;29;20128;-58
2023/11/12 08:54:05;;;;;;;0.38;0.38;;;;;;;-145.01;100.00;64805.59;4901536;29;20475;-58
2023/11/12 08:56:32;;;;;;;0.40;0.40;;;;;;;-145.01;100.00;64805.59;4899125;29;20468;-58
2023/11/12 08:59:01;;;;;;;0.40;0.40;;;;;;;-145.01;100.00;64805.59;4904627;29;20104;-58
2023/11/12 09:01:28;;;;;;;0.40;0.40;;;;;;;-145.01;100.00;64805.59;4898340;29;20509;-58
2023/11/12 09:03:55;;;;;;;0.30;0.30;;;;;;;-145.01;100.00;64805.59;4897379;29;20037;-58
2023/11/12 09:06:23;;;;;;;0.30;0.30;;;;;;;-145.01;100.00;64805.59;4905093;29;20121;-58
2023/11/12 09:08:50;;;;;;;0.40;0.40;;;;;;;-145.01;100.00;64805.59;4905333;29;20507;-58
2023/11/12 09:11:17;;;;;;;0.40;0.40;;;;;;;-145.01;100.00;64805.59;4911942;29;20044;-58
2023/11/12 09:13:45;;;;;;;0.32;0.32;;;;;;;-145.01;100.00;64805.59;4902266;29;20571;-58
2023/11/12 09:16:13;;;;;;;0.40;0.40;;;;;;;-145.01;100.00;64805.59;4902467;29;20111;-58
2023/11/12 09:18:40;;;;;;;0.40;0.40;;;;;;;-145.01;100.00;64805.59;4900515;29;20047;-58
2023/11/12 09:21:07;;;;;;;0.30;0.30;;;;;;;-145.01;100.00;64805.59;4904408;29;20157;-60
2023/11/12 09:23:35;;;;;;;0.30;0.30;;;;;;;-145.01;100.00;64805.59;4897691;29;20056;-57
2023/11/12 09:26:02;;;;;;;0.30;0.30;;;;;;;-145.01;100.00;64805.59;4908820;29;20045;-60
2023/11/12 09:28:30;;;;;;;0.30;0.30;;;;;;;-145.01;100.00;64805.59;4905460;29;20092;-57
2023/11/12 09:30:57;;;;;;;0.32;0.32;;;;;;;-145.01;100.00;64805.59;4914543;29;20102;-59
2023/11/12 09:33:27;;;;;;;0.30;0.30;;;;;;;-145.01;100.00;64805.59;4916595;29;20631;-59
2023/11/12 09:35:54;;;;;;;0.40;0.40;;;;;;;-145.01;100.00;64805.59;4906697;29;20050;-59
2023/11/12 09:38:21;;;;;;;0.20;0.20;;;;;;;-145.01;100.00;64805.59;4911279;29;20146;-60
2023/11/12 09:40:48;;;;;;;0.38;0.38;;;;;;;-145.01;100.00;64805.59;4902833;29;20103;-59
2023/11/12 09:43:15;;;;;;;0.40;0.40;;;;;;;-145.01;100.00;64805.59;4905460;29;20172;-60
2023/11/12 09:45:44;;;;;;;0.30;0.30;;;;;;;-145.01;100.00;64805.59;4908588;29;21400;-59
2023/11/12 09:48:19;;;;;;;0.40;0.40;;;;;;;-145.01;100.00;64805.59;4911797;29;20414;-59
2023/11/12 09:50:48;;;;;;;0.30;0.30;;;;;;;-145.01;100.00;64805.59;4913230;29;20055;-59
2023/11/12 09:53:15;;;;;;;0.20;0.20;;;;;;;-145.01;100.00;64805.59;4907934;29;20403;-58
2023/11/12 09:55:43;;;;;;;0.30;0.30;;;;;;;-145.01;100.00;64805.59;4903156;29;20096;-58
2023/11/12 09:58:10;;;;;;;0.30;0.30;;;;;;;-145.01;100.00;64805.59;4905894;29;20071;-58
2023/11/12 10:00:37;;;;;;;0.30;0.30;;;;;;;-145.01;100.00;64805.59;4908787;29;20493;-58
2023/11/12 10:03:06;;;;;;;0.30;0.30;;;;;;;-145.01;100.00;64805.59;4906642;29;20138;-58
2023/11/12 10:05:33;;;;;;;0.20;0.20;;;;;;;-145.01;100.00;64805.59;4885616;29;20052;-60
2023/11/12 10:08:02;;;;;;;0.20;0.20;;;;;;;-145.01;100.00;64805.59;4905885;29;20405;-59
2023/11/12 10:10:30;;;;;;;0.30;0.30;;;;;;;-145.01;100.00;64805.59;4905798;29;20056;-60
2023/11/12 10:12:58;;;;;;;0.30;0.30;;;;;;;-145.01;100.00;64805.59;4905632;29;20586;-60
2023/11/12 10:15:26;;;;;;;0.30;0.30;;;;;;;-145.01;100.00;64805.59;4896308;29;20493;-58
2023/11/12 10:17:53;;;;;;;0.30;0.30;;;;;;;-145.01;100.00;64805.59;4908390;29;20123;-58
2023/11/12 10:20:20;;;;;;;0.30;0.30;;;;;;;-145.01;100.00;64805.59;4913214;29;20041;-58
2023/11/12 10:22:47;;;;;;;0.25;0.25;;;;;;;-145.01;100.00;64805.59;4917002;29;20067;-58
2023/11/12 10:25:31;;;;;;;0.20;0.20;;;;;;;-145.01;100.00;64805.59;4901872;29;20043;-58
2023/11/12 10:27:59;;;;;;;0.30;0.30;;;;;;;-145.01;100.00;64805.59;4899395;29;20040;-58
2023/11/12 10:30:26;;;;;;;0.30;0.30;;;;;;;-145.01;100.00;64805.59;4896550;29;20147;-58
2023/11/12 10:32:54;;;;;;;0.20;0.20;;;;;;;-145.01;100.00;64805.59;4912894;29;20090;-58
2023/11/12 10:35:25;;;;;;;0.30;0.30;;;;;;;-145.01;100.00;64805.59;4901510;29;20058;-58
2023/11/12 10:37:56;;;;;;;0.30;0.30;;;;;;;-145.01;100.00;64805.59;4904554;29;20079;-58
2023/11/12 10:40:25;;;;;;;0.40;0.40;;;;;;;-145.01;100.00;64805.59;4902449;29;20527;-58
2023/11/12 10:42:58;;;;;;;0.30;0.30;;;;;;;-145.01;100.00;64805.59;4913890;29;20096;-60
2023/11/12 10:45:25;;;;;;;0.30;0.30;;;;;;;-145.01;100.00;64805.59;4903642;29;20048;-58
2023/11/12 10:47:53;;;;;;;0.30;0.30;;;;;;;-145.01;100.00;64805.59;4912888;29;20048;-58
2023/11/12 10:50:20;;;;;;;0.30;0.30;;;;;;;-145.01;100.00;64805.59;4900569;29;20067;-58
2023/11/12 10:52:47;;;;;;;0.30;0.30;;;;;;;-145.01;100.00;64805.59;4900944;29;20060;-58
2023/11/12 10:55:14;;;;;;;0.20;0.20;;;;;;;-145.01;100.00;64805.59;4913834;29;20067;-58
2023/11/12 10:57:45;;;;;;;0.30;0.30;;;;;;;-145.01;100.00;64805.59;4905627;29;20048;-59
2023/11/12 11:00:13;;;;;;;0.30;0.30;;;;;;;-145.01;100.00;64805.59;4909089;29;20059;-58
2023/11/12 11:02:40;;;;;;;0.40;0.40;;;;;;;-145.01;100.00;64805.59;4907775;29;20076;-58
2023/11/12 11:05:08;;;;;;;0.30;0.30;;;;;;;-145.01;100.00;64805.59;4899265;29;20104;-58
2023/11/12 11:07:36;;;;;;;0.30;0.30;;;;;;;-145.01;100.00;64805.59;4897849;29;20048;-58
2023/11/12 11:10:04;;;;;;;0.30;0.30;;;;;;;-145.01;100.00;64805.59;4901640;29;20821;-58
2023/11/12 11:12:31;;;;;;;0.30;0.30;;;;;;;-145.01;100.00;64805.59;4909482;29;20052;-58